Time;durP1;ratioP1;P1;durP2;ratioP2;P2;SDS_P1;SDS_P2;PMS_P1;PMS_P2;Temp;Humidity;BMP_temperature;BMP_pressure;BME280_temperature;BME280_humidity;BME280_pressure;Samples;Min_cycle;Max_cycle;Signal;HPM_P1;HPM_P2
2022/12/22 03:26:47;;;;;;;5.40;1.90;;;11.50;85.60;;;;;;4989271;28;20462;-73
2022/12/22 03:29:13;;;;;;;7.57;1.50;;;11.60;85.10;;;;;;4989630;28;20027;-73
2022/12/22 03:31:39;;;;;;;1.63;1.17;;;11.70;83.80;;;;;;4989365;28;20846;-73
2022/12/22 03:34:05;;;;;;;4.43;1.27;;;11.70;85.60;;;;;;4987765;28;20026;-74
2022/12/22 03:36:30;;;;;;;4.83;1.57;;;11.60;85.30;;;;;;4990871;28;20042;-73
2022/12/22 03:38:56;;;;;;;3.50;1.43;;;11.50;85.10;;;;;;4987202;28;20030;-73
2022/12/22 03:46:49;;;;;;;2.70;1.20;;;11.60;83.80;;;;;;4989206;28;20092;-73
2022/12/22 03:49:15;;;;;;;4.13;1.40;;;11.70;83.50;;;;;;4980317;28;20031;-73
2022/12/22 03:51:46;;;;;;;4.23;1.60;;;11.70;83.20;;;;;;4989717;28;20034;-73
2022/12/22 03:54:15;;;;;;;5.28;1.55;;;11.80;83.00;;;;;;4990563;28;20030;-72
2022/12/22 03:56:41;;;;;;;3.15;1.17;;;11.80;83.40;;;;;;4993707;28;20540;-72
2022/12/22 03:59:07;;;;;;;3.28;1.25;;;11.80;83.20;;;;;;4989217;28;20031;-73
2022/12/22 04:01:38;;;;;;;2.78;1.20;;;11.80;83.50;;;;;;4990345;28;20419;-74
2022/12/22 04:04:03;;;;;;;5.65;1.40;;;11.90;82.60;;;;;;4989506;28;20034;-73
2022/12/22 04:06:29;;;;;;;2.67;1.17;;;12.00;82.30;;;;;;4989463;28;20041;-72
2022/12/22 04:08:55;;;;;;;2.63;1.30;;;11.90;82.20;;;;;;4986492;28;20617;-72
2022/12/22 04:14:05;;;;;;;4.47;1.08;;;12.00;82.00;;;;;;4991967;28;20442;-72
2022/12/22 04:16:30;;;;;;;4.07;1.10;;;12.00;81.10;;;;;;4992201;28;20030;-73
2022/12/22 04:18:56;;;;;;;4.82;1.20;;;12.00;81.00;;;;;;4986431;28;20046;-72
2022/12/22 04:21:22;;;;;;;2.17;1.10;;;12.00;81.90;;;;;;4992181;28;20465;-72
2022/12/22 04:23:50;;;;;;;2.03;1.10;;;11.90;81.60;;;;;;4989600;28;20018;-73
2022/12/22 04:26:18;;;;;;;3.40;0.90;;;11.90;81.20;;;;;;4985441;28;20423;-72
2022/12/22 04:28:44;;;;;;;3.58;1.27;;;11.90;81.20;;;;;;4989222;28;20030;-72
2022/12/22 04:31:09;;;;;;;6.47;1.27;;;12.00;80.30;;;;;;4989339;28;20048;-72
2022/12/22 04:33:35;;;;;;;6.57;1.03;;;12.00;81.30;;;;;;4988526;28;20566;-73
2022/12/22 04:36:01;;;;;;;5.53;1.17;;;12.00;80.80;;;;;;4985328;28;20039;-72
2022/12/22 04:38:26;;;;;;;3.40;1.10;;;11.90;81.20;;;;;;4988982;28;20101;-72
2022/12/22 04:40:52;;;;;;;4.23;1.50;;;12.00;80.20;;;;;;4990724;28;20046;-73
2022/12/22 04:43:17;;;;;;;4.67;1.40;;;12.00;79.80;;;;;;4987137;28;20058;-72
2022/12/22 04:45:44;;;;;;;5.60;1.30;;;12.00;80.00;;;;;;4988820;28;20053;-73
2022/12/22 04:48:09;;;;;;;5.57;1.38;;;12.10;79.70;;;;;;4982262;28;20065;-73
2022/12/22 04:50:35;;;;;;;6.50;1.23;;;12.10;78.70;;;;;;4988236;28;20830;-73
2022/12/22 04:53:01;;;;;;;8.20;1.77;;;12.00;79.50;;;;;;4980612;28;20034;-73
2022/12/22 04:55:27;;;;;;;3.70;1.30;;;11.90;80.00;;;;;;4990212;28;20037;-73
2022/12/22 04:57:52;;;;;;;3.47;1.13;;;11.90;79.30;;;;;;4986532;28;20491;-73
2022/12/22 05:00:18;;;;;;;4.50;1.47;;;11.90;79.70;;;;;;4982305;28;20042;-72
2022/12/22 05:02:44;;;;;;;10.63;1.88;;;11.80;78.90;;;;;;4988086;28;20033;-71
2022/12/22 05:05:09;;;;;;;5.60;1.60;;;11.90;78.30;;;;;;4988843;28;20038;-72
2022/12/22 05:07:36;;;;;;;3.63;1.57;;;11.90;77.60;;;;;;4985164;28;20961;-72
2022/12/22 05:10:05;;;;;;;6.55;1.83;;;11.80;79.20;;;;;;4987500;28;20030;-72
2022/12/22 05:15:14;;;;;;;6.55;2.00;;;11.70;78.60;;;;;;4988391;28;20033;-72
2022/12/22 05:17:40;;;;;;;5.30;1.63;;;11.80;78.80;;;;;;4987125;28;20038;-73
2022/12/22 05:20:06;;;;;;;3.63;1.43;;;11.80;78.10;;;;;;4985248;28;20418;-73
2022/12/22 05:22:32;;;;;;;5.78;1.58;;;12.00;77.90;;;;;;4987184;28;20161;-73
2022/12/22 05:24:58;;;;;;;5.27;1.63;;;11.90;78.20;;;;;;4982847;28;20125;-73
2022/12/22 05:27:23;;;;;;;3.77;1.50;;;11.90;78.30;;;;;;4986087;28;20041;-73
2022/12/22 05:29:49;;;;;;;7.93;1.07;;;11.90;78.30;;;;;;4987047;28;20030;-73
2022/12/22 05:32:14;;;;;;;11.10;2.10;;;11.80;78.80;;;;;;4986734;28;20088;-73
2022/12/22 05:34:40;;;;;;;4.37;1.60;;;11.90;79.40;;;;;;4984314;28;20402;-73
2022/12/22 05:37:05;;;;;;;4.47;1.60;;;11.80;79.80;;;;;;4986083;28;20043;-73
2022/12/22 05:39:31;;;;;;;4.03;1.63;;;11.90;79.80;;;;;;4989015;28;20306;-73
2022/12/22 05:41:57;;;;;;;3.27;1.40;;;11.90;80.20;;;;;;4987131;28;20046;-73
2022/12/22 05:44:23;;;;;;;7.80;1.80;;;11.90;79.80;;;;;;4988071;28;20119;-73
2022/12/22 05:46:52;;;;;;;2.60;1.05;;;11.90;80.70;;;;;;4986988;28;20114;-73
2022/12/22 05:49:18;;;;;;;6.97;1.42;;;11.90;79.90;;;;;;4988677;28;20030;-73
2022/12/22 05:51:45;;;;;;;4.97;1.48;;;12.00;80.60;;;;;;4992216;28;20022;-74
2022/12/22 05:54:10;;;;;;;5.47;1.75;;;12.00;80.40;;;;;;4991926;28;20035;-73
2022/12/22 05:56:36;;;;;;;5.33;1.33;;;12.00;80.50;;;;;;4989670;28;20049;-73
2022/12/22 05:59:02;;;;;;;8.57;1.77;;;12.00;80.40;;;;;;4991004;28;20027;-73
2022/12/22 06:01:27;;;;;;;7.35;1.63;;;12.10;79.60;;;;;;4992447;28;20026;-73
2022/12/22 06:03:53;;;;;;;5.13;1.60;;;12.00;80.10;;;;;;4990454;28;20026;-73
2022/12/22 06:06:19;;;;;;;8.27;1.93;;;12.00;80.00;;;;;;4990024;28;20042;-73
2022/12/22 06:08:44;;;;;;;7.47;1.87;;;11.90;80.40;;;;;;4987590;28;20030;-73
2022/12/22 06:11:10;;;;;;;5.27;1.80;;;11.90;80.00;;;;;;4990712;28;20014;-73
2022/12/22 06:13:35;;;;;;;4.13;1.90;;;11.90;80.90;;;;;;4989487;28;20058;-74
2022/12/22 06:16:01;;;;;;;3.03;1.67;;;11.80;81.30;;;;;;4989450;28;20023;-73
2022/12/22 06:18:27;;;;;;;3.07;1.43;;;11.80;81.20;;;;;;4990568;28;20022;-72
2022/12/22 06:20:53;;;;;;;7.55;2.75;;;11.90;80.30;;;;;;4990958;28;20038;-73
2022/12/22 06:23:19;;;;;;;6.97;1.65;;;11.90;81.20;;;;;;4984365;28;20034;-73
2022/12/22 06:25:59;;;;;;;7.85;2.15;;;11.90;82.10;;;;;;4988403;28;20398;-73
2022/12/22 06:28:25;;;;;;;3.45;1.88;;;11.90;80.50;;;;;;4987849;28;20053;-73
2022/12/22 06:30:52;;;;;;;12.43;2.08;;;11.90;80.70;;;;;;5005504;28;20050;-73
2022/12/22 06:33:18;;;;;;;8.13;2.25;;;11.90;80.80;;;;;;4991124;28;20042;-72
2022/12/22 06:35:43;;;;;;;6.57;2.22;;;11.90;80.30;;;;;;4989998;28;20038;-73
2022/12/22 06:38:09;;;;;;;5.60;1.80;;;12.00;79.70;;;;;;4989027;28;20093;-73
2022/12/22 06:40:35;;;;;;;7.17;1.90;;;12.00;79.80;;;;;;4991759;28;20066;-72
2022/12/22 06:43:09;;;;;;;8.63;1.70;;;12.00;79.90;;;;;;5000667;28;20517;-73
2022/12/22 06:45:40;;;;;;;7.30;2.17;;;12.10;79.10;;;;;;4988403;28;20038;-73
2022/12/22 06:48:06;;;;;;;9.13;2.10;;;12.00;79.00;;;;;;4990514;28;20532;-73
2022/12/22 06:50:33;;;;;;;7.35;1.98;;;12.10;80.50;;;;;;4986155;28;20387;-72
2022/12/22 06:52:58;;;;;;;9.95;2.10;;;12.10;79.00;;;;;;4992082;28;20080;-72
2022/12/22 06:55:24;;;;;;;5.17;1.90;;;12.20;79.00;;;;;;4988266;28;20030;-73
2022/12/22 06:57:49;;;;;;;7.00;2.47;;;12.20;78.70;;;;;;4982655;28;20026;-72
2022/12/22 07:00:15;;;;;;;7.30;2.17;;;12.10;79.90;;;;;;4995029;28;20029;-72
2022/12/22 07:02:41;;;;;;;12.00;2.27;;;12.10;79.10;;;;;;4983969;28;20027;-74
2022/12/22 07:05:07;;;;;;;4.33;1.60;;;12.10;79.10;;;;;;4988644;28;20282;-72
2022/12/22 07:07:32;;;;;;;6.20;1.88;;;12.10;79.70;;;;;;4989400;28;20034;-74
2022/12/22 07:09:58;;;;;;;5.87;1.87;;;12.20;79.80;;;;;;4991703;28;20030;-73
2022/12/22 07:12:24;;;;;;;5.83;1.67;;;12.10;79.50;;;;;;4986653;28;20080;-72
2022/12/22 07:14:49;;;;;;;9.90;2.28;;;12.10;79.10;;;;;;4986318;28;20145;-72
2022/12/22 07:17:15;;;;;;;10.17;2.20;;;12.10;79.60;;;;;;4997297;28;20037;-72
2022/12/22 07:19:40;;;;;;;9.23;2.10;;;12.10;80.00;;;;;;4996825;28;20027;-71
2022/12/22 07:22:06;;;;;;;7.17;1.90;;;12.10;80.90;;;;;;4989825;28;20693;-71
2022/12/22 07:24:32;;;;;;;7.57;2.07;;;12.10;80.60;;;;;;4991827;28;20030;-72
2022/12/22 07:26:58;;;;;;;16.52;2.80;;;12.10;80.40;;;;;;4987997;28;20038;-71
2022/12/22 07:29:23;;;;;;;6.27;1.93;;;12.00;80.60;;;;;;4987415;28;20392;-71
2022/12/22 07:31:50;;;;;;;5.93;2.10;;;12.10;80.40;;;;;;4987690;28;20125;-72
2022/12/22 07:34:15;;;;;;;5.90;2.03;;;12.00;81.80;;;;;;4988771;28;20104;-70
2022/12/22 07:36:41;;;;;;;6.07;1.93;;;12.00;80.70;;;;;;4988911;28;20518;-72
2022/12/22 07:39:06;;;;;;;4.03;2.13;;;12.10;81.40;;;;;;4989743;28;20046;-72
2022/12/22 07:44:16;;;;;;;8.02;1.70;;;12.10;80.20;;;;;;4993559;28;20121;-72
2022/12/22 07:46:42;;;;;;;4.23;2.00;;;12.20;80.30;;;;;;4988626;28;20113;-72
2022/12/22 07:51:56;;;;;;;5.18;1.77;;;12.20;80.00;;;;;;4982660;28;20105;-72
2022/12/22 07:54:22;;;;;;;8.95;2.50;;;12.10;81.50;;;;;;4984128;28;20029;-71
2022/12/22 07:56:48;;;;;;;4.82;2.03;;;12.20;80.50;;;;;;4986645;28;20085;-71
2022/12/22 07:59:14;;;;;;;8.30;2.22;;;12.20;80.50;;;;;;4989063;28;20089;-72
2022/12/22 08:01:40;;;;;;;8.13;1.92;;;12.20;80.20;;;;;;4986109;28;20026;-73
2022/12/22 08:04:07;;;;;;;7.60;2.17;;;12.40;80.10;;;;;;4990964;28;20030;-72
2022/12/22 08:06:34;;;;;;;7.72;2.03;;;12.40;79.30;;;;;;4987676;28;20038;-72
2022/12/22 08:09:00;;;;;;;5.15;2.40;;;12.40;79.70;;;;;;4984882;28;20021;-71
2022/12/22 08:11:25;;;;;;;8.25;2.33;;;12.40;79.60;;;;;;4986984;28;20042;-73
2022/12/22 08:13:51;;;;;;;7.77;2.10;;;12.50;79.10;;;;;;4990036;28;20026;-72
2022/12/22 08:16:18;;;;;;;8.07;1.80;;;12.50;78.50;;;;;;4988248;28;20007;-72
2022/12/22 08:18:44;;;;;;;6.88;2.22;;;12.60;77.60;;;;;;4986845;28;20030;-73
2022/12/22 08:21:09;;;;;;;5.53;2.17;;;12.60;78.30;;;;;;4988658;28;20023;-73
2022/12/22 08:23:35;;;;;;;10.27;2.30;;;12.60;77.80;;;;;;4988503;28;20027;-74
2022/12/22 08:26:16;;;;;;;7.03;2.65;;;12.60;77.20;;;;;;4989230;28;20117;-72
2022/12/22 08:28:53;;;;;;;8.15;2.22;;;12.60;77.00;;;;;;4986333;28;20372;-74
2022/12/22 08:31:20;;;;;;;9.15;2.90;;;12.60;77.90;;;;;;4986351;28;20101;-75
2022/12/22 08:33:46;;;;;;;7.28;1.88;;;12.60;78.40;;;;;;4986249;28;20876;-73
2022/12/22 08:36:12;;;;;;;10.68;2.58;;;12.60;77.30;;;;;;4985575;28;20042;-73
2022/12/22 08:38:40;;;;;;;12.60;2.35;;;12.60;77.40;;;;;;4988782;28;20450;-73
2022/12/22 08:41:09;;;;;;;10.55;2.50;;;12.60;76.90;;;;;;4987415;28;20034;-74
2022/12/22 08:43:34;;;;;;;15.35;2.58;;;12.70;77.00;;;;;;4988272;28;20026;-73
2022/12/22 08:46:00;;;;;;;8.03;2.63;;;12.60;76.70;;;;;;4988633;28;20034;-71
2022/12/22 08:48:26;;;;;;;18.03;3.67;;;12.70;75.60;;;;;;4984831;28;20026;-73
2022/12/22 08:50:51;;;;;;;10.40;2.83;;;12.70;76.60;;;;;;4989628;28;20030;-71
2022/12/22 08:53:17;;;;;;;13.63;2.57;;;12.70;76.30;;;;;;4987032;28;20109;-73
2022/12/22 08:55:51;;;;;;;10.63;3.20;;;12.70;76.20;;;;;;4988010;28;20049;-73
2022/12/22 08:58:17;;;;;;;7.05;2.22;;;12.70;76.90;;;;;;4987744;28;20034;-72
2022/12/22 09:00:43;;;;;;;16.17;3.23;;;12.80;76.70;;;;;;4985644;28;20034;-73
2022/12/22 09:03:09;;;;;;;8.98;2.40;;;12.80;76.50;;;;;;4988337;28;20041;-73
2022/12/22 09:05:37;;;;;;;13.33;2.43;;;12.90;76.40;;;;;;4985988;28;20034;-73
2022/12/22 09:08:03;;;;;;;14.13;2.47;;;12.90;75.80;;;;;;4987298;28;20432;-74
2022/12/22 09:10:29;;;;;;;9.27;2.60;;;13.00;76.50;;;;;;4985552;28;20037;-75
2022/12/22 09:12:54;;;;;;;8.30;2.40;;;13.00;76.30;;;;;;4988250;28;20402;-74
2022/12/22 09:15:20;;;;;;;8.07;2.40;;;13.00;75.30;;;;;;4988466;28;20015;-75
2022/12/22 09:17:47;;;;;;;7.67;1.97;;;12.90;75.90;;;;;;4989260;28;20042;-74
2022/12/22 09:20:13;;;;;;;10.30;2.20;;;13.00;76.90;;;;;;4987051;28;20014;-74
2022/12/22 09:22:39;;;;;;;17.77;3.20;;;13.00;76.80;;;;;;4988153;28;20130;-71
2022/12/22 09:25:05;;;;;;;13.15;2.80;;;13.00;76.80;;;;;;4986956;28;20101;-75
2022/12/22 09:27:30;;;;;;;15.63;2.63;;;13.00;76.50;;;;;;4989464;28;20050;-74
2022/12/22 09:29:56;;;;;;;10.63;3.03;;;13.00;76.80;;;;;;4984934;28;20042;-75
2022/12/22 09:32:22;;;;;;;7.33;2.60;;;13.00;77.10;;;;;;4979286;28;20029;-74
2022/12/22 09:34:47;;;;;;;9.63;3.10;;;13.10;76.60;;;;;;4984484;28;20026;-74
2022/12/22 09:37:14;;;;;;;11.80;3.20;;;13.10;76.50;;;;;;4980368;28;20117;-75
2022/12/22 09:39:40;;;;;;;12.02;2.97;;;13.10;76.80;;;;;;4988009;28;20026;-74
2022/12/22 09:42:12;;;;;;;13.60;2.70;;;13.20;76.10;;;;;;4987446;28;20098;-74
2022/12/22 09:44:43;;;;;;;12.18;2.60;;;13.20;76.00;;;;;;4988716;28;20043;-74
2022/12/22 09:47:25;;;;;;;12.85;2.80;;;13.20;76.30;;;;;;4987647;28;21096;-74
2022/12/22 09:49:51;;;;;;;7.60;2.28;;;13.20;75.70;;;;;;4984422;28;20483;-72
2022/12/22 09:52:42;;;;;;;10.07;2.60;;;13.20;75.80;;;;;;4985314;28;20041;-74
2022/12/22 09:55:36;;;;;;;15.50;3.05;;;13.30;76.20;;;;;;4986648;28;20062;-74
2022/12/22 09:58:02;;;;;;;10.75;2.60;;;13.40;76.20;;;;;;4984046;28;20592;-74
2022/12/22 10:00:28;;;;;;;11.23;3.60;;;13.50;75.60;;;;;;4986614;28;20026;-76
2022/12/22 10:03:20;;;;;;;19.13;3.85;;;13.50;74.60;;;;;;4986510;28;20440;-75
2022/12/22 10:05:55;;;;;;;12.02;2.67;;;13.50;76.10;;;;;;4987696;28;20080;-74
2022/12/22 10:08:28;;;;;;;10.80;2.47;;;13.50;76.00;;;;;;4985310;28;20033;-75
2022/12/22 10:10:55;;;;;;;13.15;3.42;;;13.60;75.40;;;;;;4986213;28;20490;-74
2022/12/22 10:13:21;;;;;;;;;;;13.60;74.80;;;;;;4986784;28;20549;-74
2022/12/22 10:15:47;;;;;;;14.27;2.97;;;13.70;76.00;;;;;;4986011;28;20005;-75
2022/12/22 10:18:18;;;;;;;17.00;3.95;;;13.80;74.40;;;;;;4987509;28;20030;-75
2022/12/22 10:21:00;;;;;;;11.75;3.00;;;13.90;73.00;;;;;;4986243;28;20176;-74
2022/12/22 10:23:28;;;;;;;12.00;3.40;;;14.10;73.40;;;;;;4984509;28;20045;-77
2022/12/22 10:26:09;;;;;;;23.02;3.35;;;14.10;74.20;;;;;;4987118;28;20065;-74
2022/12/22 10:28:38;;;;;;;9.23;2.72;;;14.20;74.10;;;;;;4987181;28;20191;-75
2022/12/22 10:31:17;;;;;;;13.68;3.08;;;14.30;73.80;;;;;;4987439;28;20054;-74
2022/12/22 10:33:45;;;;;;;16.50;3.00;;;14.40;73.40;;;;;;4983009;28;20037;-74
2022/12/22 10:36:13;;;;;;;11.55;2.63;;;14.40;72.90;;;;;;4989550;28;20026;-74
2022/12/22 10:38:52;;;;;;;11.90;3.10;;;14.50;72.50;;;;;;4988354;28;21875;-75
2022/12/22 10:41:24;;;;;;;16.05;3.90;;;14.60;72.30;;;;;;4996432;28;20129;-75
2022/12/22 10:43:56;;;;;;;15.90;4.15;;;14.80;72.20;;;;;;4987153;28;20034;-74
2022/12/22 10:46:46;;;;;;;9.10;2.42;;;14.90;71.80;;;;;;4988742;28;20501;-75
2022/12/22 10:49:14;;;;;;;8.50;2.58;;;14.90;70.90;;;;;;4989880;28;20037;-75
2022/12/22 10:51:42;;;;;;;18.38;4.18;;;15.00;70.70;;;;;;4991148;28;20539;-75
2022/12/22 10:54:08;;;;;;;14.30;2.45;;;15.00;70.80;;;;;;4990721;28;20038;-75
2022/12/22 10:56:34;;;;;;;21.63;3.57;;;15.10;70.70;;;;;;4988773;28;20030;-74
2022/12/22 10:59:03;;;;;;;10.25;3.20;;;15.30;69.90;;;;;;4991990;28;20018;-74
2022/12/22 11:01:34;;;;;;;14.27;3.95;;;15.40;71.50;;;;;;4985536;28;20034;-75
2022/12/22 11:04:29;;;;;;;14.80;3.45;;;15.60;69.80;;;;;;4985166;28;20146;-74
2022/12/22 11:06:58;;;;;;;16.08;3.33;;;15.70;68.40;;;;;;4992043;28;20689;-76
2022/12/22 11:09:25;;;;;;;14.98;3.45;;;15.70;68.60;;;;;;4990630;28;20030;-76
2022/12/22 11:12:09;;;;;;;14.60;3.90;;;15.70;68.80;;;;;;4989010;28;20030;-75
2022/12/22 11:14:53;;;;;;;13.48;3.42;;;15.60;69.20;;;;;;4990500;28;20391;-75
2022/12/22 11:17:25;;;;;;;18.60;3.47;;;15.40;70.50;;;;;;4985679;28;20024;-75
2022/12/22 11:19:54;;;;;;;16.05;4.00;;;15.40;67.80;;;;;;4992400;28;20401;-74
2022/12/22 11:22:45;;;;;;;19.20;3.95;;;15.50;70.10;;;;;;4986534;28;20074;-74
2022/12/22 11:25:49;;;;;;;23.73;4.75;;;15.50;68.90;;;;;;4989997;28;20030;-74
2022/12/22 11:28:54;;;;;;;18.15;4.53;;;15.50;68.40;;;;;;4980809;28;20049;-74
2022/12/22 11:31:48;;;;;;;15.50;4.25;;;15.50;70.50;;;;;;4984067;28;20108;-74
2022/12/22 11:34:42;;;;;;;19.88;4.18;;;15.60;71.80;;;;;;4984367;28;20026;-75
2022/12/22 11:37:13;;;;;;;15.98;3.88;;;15.70;71.50;;;;;;4986644;28;20137;-74
2022/12/22 11:39:53;;;;;;;20.45;4.22;;;15.80;70.20;;;;;;4989673;28;20034;-74
2022/12/22 11:42:37;;;;;;;17.63;3.45;;;16.00;69.70;;;;;;4985035;28;20027;-74
2022/12/22 11:45:06;;;;;;;17.67;3.67;;;16.10;67.90;;;;;;4985283;28;20038;-74
2022/12/22 11:47:42;;;;;;;14.55;3.17;;;16.30;68.10;;;;;;4983259;28;20062;-74
2022/12/22 11:50:19;;;;;;;11.93;3.08;;;16.60;65.30;;;;;;4986514;28;20027;-74
2022/12/22 11:52:55;;;;;;;16.55;4.13;;;16.60;64.20;;;;;;4977393;28;20399;-74
2022/12/22 11:55:33;;;;;;;14.33;3.10;;;16.50;63.90;;;;;;4986637;28;20076;-74
2022/12/22 11:58:27;;;;;;;17.20;3.17;;;16.30;63.40;;;;;;4994263;28;20289;-74
2022/12/22 12:01:18;;;;;;;18.73;3.47;;;16.10;63.90;;;;;;4988395;28;20034;-74
2022/12/22 12:03:47;;;;;;;17.10;3.13;;;16.00;64.00;;;;;;4986877;28;20033;-74
2022/12/22 12:06:37;;;;;;;16.35;2.95;;;15.80;64.40;;;;;;4987581;28;20066;-74
2022/12/22 12:09:15;;;;;;;18.73;3.17;;;15.80;65.60;;;;;;4988102;28;20030;-74
2022/12/22 12:11:54;;;;;;;15.93;3.72;;;15.90;65.10;;;;;;4986701;28;20026;-74
2022/12/22 12:14:33;;;;;;;15.45;3.55;;;15.90;64.50;;;;;;4988240;28;20022;-75
2022/12/22 12:17:02;;;;;;;25.00;4.72;;;16.00;66.00;;;;;;4986913;28;20394;-74
2022/12/22 12:19:52;;;;;;;13.38;3.47;;;16.10;66.50;;;;;;4976424;28;20397;-74
2022/12/22 12:22:26;;;;;;;22.83;3.67;;;16.10;65.70;;;;;;4988261;28;20026;-74
2022/12/22 12:25:00;;;;;;;15.15;3.05;;;16.00;64.70;;;;;;4987450;28;20030;-75
2022/12/22 12:27:51;;;;;;;19.88;3.30;;;16.00;65.70;;;;;;4976268;28;20500;-75
2022/12/22 12:30:19;;;;;;;16.42;3.88;;;15.90;65.50;;;;;;4987776;28;20034;-75
2022/12/22 12:32:56;;;;;;;16.92;4.00;;;15.80;65.90;;;;;;4987412;28;20039;-75
2022/12/22 12:35:44;;;;;;;16.92;3.33;;;15.80;64.60;;;;;;4989293;28;20017;-75
2022/12/22 12:38:28;;;;;;;20.38;3.20;;;15.80;64.80;;;;;;4986333;28;20530;-75
2022/12/22 12:41:05;;;;;;;16.70;3.40;;;15.70;65.40;;;;;;4985537;28;20495;-75
2022/12/22 12:43:31;;;;;;;;;;;15.80;66.80;;;;;;4975024;28;20109;-75
2022/12/22 12:45:57;;;;;;;16.55;3.20;;;15.90;67.00;;;;;;4988960;28;20444;-74
2022/12/22 12:48:23;;;;;;;20.17;3.97;;;15.90;66.00;;;;;;4988054;28;20026;-75
2022/12/22 12:50:52;;;;;;;17.23;3.75;;;15.90;67.00;;;;;;4986965;28;20162;-76
2022/12/22 12:53:20;;;;;;;15.48;3.30;;;15.90;66.60;;;;;;4986995;28;20022;-76
2022/12/22 12:55:49;;;;;;;21.20;4.30;;;16.00;64.90;;;;;;4987471;28;20179;-76
2022/12/22 12:58:36;;;;;;;19.85;4.32;;;16.00;65.00;;;;;;4987517;28;20041;-75
2022/12/22 13:01:28;;;;;;;12.50;3.47;;;16.00;65.70;;;;;;4989000;28;20034;-76
2022/12/22 13:03:54;;;;;;;15.98;3.35;;;15.90;64.90;;;;;;4982441;28;20133;-77
2022/12/22 13:06:44;;;;;;;26.40;3.80;;;15.90;66.20;;;;;;4990457;28;20125;-75
2022/12/22 13:09:16;;;;;;;24.52;4.68;;;15.70;65.70;;;;;;4984107;28;20077;-74
2022/12/22 13:11:42;;;;;;;44.70;11.20;;;15.60;66.50;;;;;;4991322;28;20486;-75
2022/12/22 13:14:08;;;;;;;26.73;6.10;;;15.50;67.10;;;;;;4993277;28;20025;-75
2022/12/22 13:16:36;;;;;;;26.20;4.18;;;15.50;66.80;;;;;;4986228;28;20061;-76
2022/12/22 13:19:09;;;;;;;24.38;5.47;;;15.40;65.30;;;;;;4992156;28;20030;-74
2022/12/22 13:21:42;;;;;;;20.40;4.93;;;15.40;64.60;;;;;;4986765;28;20024;-75
2022/12/22 13:24:22;;;;;;;15.77;3.85;;;15.30;63.30;;;;;;4984535;28;20117;-75
2022/12/22 13:26:53;;;;;;;20.50;4.25;;;15.30;63.00;;;;;;4984209;28;20402;-74
2022/12/22 13:29:24;;;;;;;25.15;4.10;;;15.20;64.40;;;;;;4987419;28;20022;-74
2022/12/22 13:32:14;;;;;;;20.08;3.25;;;15.20;64.50;;;;;;4988278;28;20049;-77
2022/12/22 13:34:43;;;;;;;21.20;4.38;;;15.20;63.10;;;;;;4986408;28;20026;-76
2022/12/22 13:37:24;;;;;;;15.07;3.63;;;15.20;64.70;;;;;;4988774;28;20057;-74
2022/12/22 13:40:06;;;;;;;17.02;3.97;;;15.20;64.30;;;;;;4986019;28;20030;-73
2022/12/22 13:42:46;;;;;;;19.23;3.67;;;15.10;66.00;;;;;;4986094;28;20064;-75
2022/12/22 13:45:32;;;;;;;19.80;4.13;;;15.20;65.50;;;;;;4986623;28;20483;-75
2022/12/22 13:47:59;;;;;;;19.67;3.80;;;15.10;66.30;;;;;;4980266;28;20058;-74
2022/12/22 13:50:37;;;;;;;14.00;3.60;;;15.00;66.30;;;;;;4987240;28;20533;-74
2022/12/22 13:53:07;;;;;;;19.58;3.97;;;15.00;67.10;;;;;;4985460;28;20514;-72
2022/12/22 13:55:33;;;;;;;15.32;3.03;;;15.00;67.10;;;;;;4987166;28;20157;-72
2022/12/22 13:58:08;;;;;;;14.38;3.25;;;15.00;66.80;;;;;;4987933;28;20019;-72
2022/12/22 14:00:33;;;;;;;12.90;3.03;;;14.90;65.50;;;;;;4986629;28;20033;-72
2022/12/22 14:02:59;;;;;;;18.07;4.20;;;14.90;67.50;;;;;;4989264;28;20030;-73
2022/12/22 14:05:30;;;;;;;19.17;3.55;;;14.90;68.20;;;;;;4987354;28;20034;-72
2022/12/22 14:08:01;;;;;;;20.55;4.68;;;14.90;68.10;;;;;;4984723;28;20031;-73
2022/12/22 14:10:37;;;;;;;19.00;4.13;;;14.90;67.70;;;;;;4989755;28;20065;-72
2022/12/22 14:13:19;;;;;;;17.52;3.80;;;14.80;67.10;;;;;;4991655;28;20026;-73
2022/12/22 14:15:45;;;;;;;18.17;3.45;;;14.70;68.20;;;;;;4990972;28;20032;-74
2022/12/22 14:18:20;;;;;;;16.90;3.75;;;14.70;67.60;;;;;;4991267;28;20102;-73
2022/12/22 14:20:47;;;;;;;12.85;3.58;;;14.70;68.10;;;;;;4989325;28;20049;-73
2022/12/22 14:23:12;;;;;;;18.20;3.47;;;14.70;68.40;;;;;;4989260;28;20037;-75
2022/12/22 14:25:43;;;;;;;20.57;3.63;;;14.70;68.50;;;;;;5002543;28;20022;-73
2022/12/22 14:28:26;;;;;;;22.20;3.45;;;14.70;66.60;;;;;;4988526;28;20030;-72
2022/12/22 14:30:56;;;;;;;18.52;3.80;;;14.60;66.20;;;;;;4989743;28;20546;-72
2022/12/22 14:33:27;;;;;;;19.88;3.83;;;14.60;69.10;;;;;;4990424;28;20041;-73
2022/12/22 14:36:05;;;;;;;14.48;3.50;;;14.60;66.90;;;;;;4989628;28;20406;-73
2022/12/22 14:38:39;;;;;;;18.45;3.30;;;14.50;69.60;;;;;;4992185;28;20479;-72
2022/12/22 14:41:42;;;;;;;15.25;3.50;;;14.50;69.20;;;;;;4991859;28;20457;-72
2022/12/22 14:44:14;;;;;;;20.08;3.67;;;14.40;68.70;;;;;;4990460;28;20026;-73
2022/12/22 14:46:41;;;;;;;14.30;3.97;;;14.40;69.90;;;;;;4990546;28;20061;-75
2022/12/22 14:49:18;;;;;;;12.02;3.00;;;14.30;70.10;;;;;;4988652;28;20058;-73
2022/12/22 14:52:05;;;;;;;15.77;4.35;;;14.30;69.60;;;;;;4989531;28;20027;-77
2022/12/22 14:54:31;;;;;;;21.48;4.15;;;14.30;69.80;;;;;;4988879;28;20453;-72
2022/12/22 14:57:07;;;;;;;19.60;4.60;;;14.30;69.90;;;;;;4990278;28;20042;-72
2022/12/22 14:59:33;;;;;;;15.48;3.28;;;14.30;68.90;;;;;;4987223;28;20034;-78
2022/12/22 15:02:19;;;;;;;16.87;4.23;;;14.20;70.50;;;;;;4992921;28;20039;-76
2022/12/22 15:04:45;;;;;;;16.60;4.45;;;14.20;71.20;;;;;;4990184;28;20022;-75
2022/12/22 15:07:19;;;;;;;18.73;3.73;;;14.30;69.10;;;;;;4987982;28;20042;-76
2022/12/22 15:09:45;;;;;;;22.05;4.32;;;14.30;68.80;;;;;;4990272;28;20088;-73
2022/12/22 15:12:17;;;;;;;17.63;3.75;;;14.20;69.20;;;;;;4993644;28;20113;-72
2022/12/22 15:14:46;;;;;;;19.90;3.78;;;14.20;69.60;;;;;;4985590;28;20089;-73
2022/12/22 15:17:24;;;;;;;14.52;3.75;;;14.10;69.50;;;;;;4990306;28;20441;-73
2022/12/22 15:19:53;;;;;;;15.50;3.80;;;14.10;69.20;;;;;;4991749;28;20116;-73
2022/12/22 15:22:18;;;;;;;15.52;3.83;;;14.10;68.20;;;;;;4988029;28;20394;-72
2022/12/22 15:24:45;;;;;;;11.83;3.97;;;14.10;69.30;;;;;;4987427;28;20026;-74
2022/12/22 15:27:11;;;;;;;17.60;4.70;;;14.00;69.70;;;;;;4977962;28;20065;-72
2022/12/22 15:29:37;;;;;;;15.27;4.20;;;14.00;70.00;;;;;;4989810;28;20470;-72
2022/12/22 15:32:03;;;;;;;19.47;4.30;;;13.90;70.70;;;;;;4991376;28;20037;-75
2022/12/22 15:34:31;;;;;;;25.27;4.30;;;14.10;68.40;;;;;;4990634;28;20458;-74
2022/12/22 15:36:57;;;;;;;16.75;3.65;;;14.00;68.30;;;;;;4982580;28;20802;-72
2022/12/22 15:39:23;;;;;;;15.50;4.65;;;14.00;67.60;;;;;;4985475;28;20032;-72
2022/12/22 15:41:49;;;;;;;14.38;4.38;;;14.00;68.60;;;;;;4992900;28;20042;-74
2022/12/22 15:44:14;;;;;;;13.67;3.70;;;13.90;69.20;;;;;;4991091;28;20030;-72
2022/12/22 15:46:43;;;;;;;14.93;3.15;;;13.80;70.00;;;;;;4987343;28;20041;-72
2022/12/22 15:49:19;;;;;;;16.50;3.40;;;13.90;69.30;;;;;;4989225;28;20092;-73
2022/12/22 15:51:49;;;;;;;14.07;3.08;;;13.90;67.90;;;;;;4985947;28;20026;-73
2022/12/22 15:54:15;;;;;;;15.65;4.15;;;13.80;68.90;;;;;;4985962;28;20085;-72
2022/12/22 15:56:41;;;;;;;;;;;13.90;69.30;;;;;;4991495;28;20019;-72
2022/12/22 15:59:15;;;;;;;14.95;4.18;;;13.80;70.70;;;;;;4989526;28;19917;-72
2022/12/22 16:01:41;;;;;;;22.85;4.78;;;13.70;70.70;;;;;;4990287;28;20196;-72
2022/12/22 16:04:06;;;;;;;26.70;4.27;;;13.80;70.10;;;;;;4989274;28;20113;-72
2022/12/22 16:06:32;;;;;;;17.07;4.20;;;13.80;69.70;;;;;;4990705;28;20039;-72
2022/12/22 16:08:57;;;;;;;18.00;4.33;;;13.80;71.10;;;;;;4986437;28;20037;-71
2022/12/22 16:11:23;;;;;;;19.87;4.03;;;13.80;69.50;;;;;;4987596;28;20034;-71
2022/12/22 16:13:50;;;;;;;22.27;4.30;;;13.80;71.60;;;;;;4988107;28;20022;-71
2022/12/22 16:16:16;;;;;;;16.45;4.25;;;13.70;71.10;;;;;;4987595;28;20029;-71
2022/12/22 16:18:41;;;;;;;19.40;4.07;;;13.70;71.50;;;;;;4979404;28;20418;-72
2022/12/22 16:21:14;;;;;;;12.17;3.53;;;13.60;75.70;;;;;;4988462;28;20030;-72
2022/12/22 16:23:43;;;;;;;23.98;4.45;;;13.30;79.10;;;;;;4988132;28;20030;-73
2022/12/22 16:26:15;;;;;;;26.40;4.32;;;13.20;80.50;;;;;;4987318;28;20030;-73
2022/12/22 16:28:41;;;;;;;12.93;2.88;;;13.10;81.30;;;;;;4985122;28;20041;-72
2022/12/22 16:31:16;;;;;;;19.07;3.50;;;13.10;81.40;;;;;;4983864;28;20034;-72
2022/12/22 16:33:41;;;;;;;18.63;4.82;;;13.00;81.80;;;;;;4986423;28;20045;-74
2022/12/22 16:36:07;;;;;;;11.60;3.37;;;12.80;83.30;;;;;;4990438;28;20023;-72
2022/12/22 16:38:34;;;;;;;21.95;6.30;;;12.90;82.40;;;;;;4993181;28;20080;-73